This is the latest recevied weather packets stored in our database for station/object SP3OTE-2. If no packets are shown the sender has not sent any weather packets the latest 10 day(s).
| Time | Temp. | Humidity | Pressure | Rain* | Wind** | Luminosity | Snow |
|---|---|---|---|---|---|---|---|
| 1777788928 | 14.44° C | 57% | 1018.1 hPa | - | - | - | - |
| 1777788328 | 13.89° C | 57% | 1018 hPa | - | - | - | - |
| 1777787728 | 13.89° C | 60% | 1018 hPa | - | - | - | - |
| 1777787127 | 13.33° C | 61% | 1018 hPa | - | - | - | - |
| 1777786527 | 13.33° C | 62% | 1018 hPa | - | - | - | - |
| 1777785927 | 12.22° C | 67% | 1018.2 hPa | - | - | - | - |
| 1777785327 | 11.67° C | 70% | 1018.2 hPa | - | - | - | - |
| 1777784726 | 11.11° C | 74% | 1018.2 hPa | - | - | - | - |
| 1777784126 | 10° C | 78% | 1018.3 hPa | - | - | - | - |
| 1777783526 | 9.44° C | 81% | 1018.4 hPa | - | - | - | - |
| 1777782925 | 8.33° C | 81% | 1018.5 hPa | - | - | - | - |
| 1777782325 | 7.78° C | 81% | 1018.5 hPa | - | - | - | - |
| 1777781725 | 7.22° C | 81% | 1018.5 hPa | - | - | - | - |
| 1777781125 | 6.67° C | 80% | 1018.4 hPa | - | - | - | - |
| 1777780525 | 6.67° C | 79% | 1018.5 hPa | - | - | - | - |
| 1777779924 | 6.67° C | 79% | 1018.5 hPa | - | - | - | - |
| 1777779324 | 6.11° C | 78% | 1018.4 hPa | - | - | - | - |
| 1777778724 | 6.67° C | 77% | 1018.5 hPa | - | - | - | - |
| 1777778123 | 6.67° C | 76% | 1018.5 hPa | - | - | - | - |
| 1777777523 | 6.67° C | 76% | 1018.5 hPa | - | - | - | - |
| 1777776923 | 7.22° C | 75% | 1018.6 hPa | - | - | - | - |
| 1777776322 | 7.22° C | 75% | 1018.6 hPa | - | - | - | - |
| 1777775722 | 7.22° C | 74% | 1018.6 hPa | - | - | - | - |
| 1777775122 | 7.22° C | 73% | 1018.7 hPa | - | - | - | - |
| 1777774522 | 7.78° C | 72% | 1018.8 hPa | - | - | - | - |
* Rain since midnight (hover to see other rain measurements)
** Current wind speed in m/s (hover to see current wind gust speed)